sensor_id;sensor_type;location;lat;lon;timestamp;P1;durP1;ratioP1;P2;durP2;ratioP2
5805;SDS011;2929;50.810;8.342;2023-05-07T00:02:19;3.80;;;2.40;;
5805;SDS011;2929;50.810;8.342;2023-05-07T00:04:46;3.23;;;2.00;;
5805;SDS011;2929;50.810;8.342;2023-05-07T00:07:13;8.00;;;3.60;;
5805;SDS011;2929;50.810;8.342;2023-05-07T00:09:40;3.77;;;2.97;;
5805;SDS011;2929;50.810;8.342;2023-05-07T00:12:09;4.40;;;2.00;;
5805;SDS011;2929;50.810;8.342;2023-05-07T00:14:36;4.60;;;2.47;;
5805;SDS011;2929;50.810;8.342;2023-05-07T00:17:03;3.07;;;2.10;;
5805;SDS011;2929;50.810;8.342;2023-05-07T00:19:30;3.33;;;2.60;;
5805;SDS011;2929;50.810;8.342;2023-05-07T00:21:57;4.30;;;2.60;;
5805;SDS011;2929;50.810;8.342;2023-05-07T00:24:24;2.40;;;2.00;;
5805;SDS011;2929;50.810;8.342;2023-05-07T00:26:51;4.20;;;2.70;;
5805;SDS011;2929;50.810;8.342;2023-05-07T00:29:20;3.70;;;2.60;;
5805;SDS011;2929;50.810;8.342;2023-05-07T00:31:48;3.83;;;2.30;;
5805;SDS011;2929;50.810;8.342;2023-05-07T00:34:16;2.63;;;1.97;;
5805;SDS011;2929;50.810;8.342;2023-05-07T00:36:43;3.20;;;2.30;;
5805;SDS011;2929;50.810;8.342;2023-05-07T00:39:10;4.60;;;2.30;;
5805;SDS011;2929;50.810;8.342;2023-05-07T00:41:37;4.27;;;2.40;;
5805;SDS011;2929;50.810;8.342;2023-05-07T00:44:04;3.57;;;2.20;;
5805;SDS011;2929;50.810;8.342;2023-05-07T00:46:33;4.37;;;2.37;;
5805;SDS011;2929;50.810;8.342;2023-05-07T00:49:00;7.30;;;3.37;;
5805;SDS011;2929;50.810;8.342;2023-05-07T00:51:27;2.90;;;2.43;;
5805;SDS011;2929;50.810;8.342;2023-05-07T00:53:56;2.50;;;2.20;;
5805;SDS011;2929;50.810;8.342;2023-05-07T00:56:23;3.13;;;2.13;;
5805;SDS011;2929;50.810;8.342;2023-05-07T00:58:51;3.10;;;2.53;;
5805;SDS011;2929;50.810;8.342;2023-05-07T01:01:18;3.33;;;2.67;;
5805;SDS011;2929;50.810;8.342;2023-05-07T01:03:46;3.90;;;2.23;;
5805;SDS011;2929;50.810;8.342;2023-05-07T01:06:13;4.20;;;2.60;;
5805;SDS011;2929;50.810;8.342;2023-05-07T01:08:42;2.70;;;2.50;;
5805;SDS011;2929;50.810;8.342;2023-05-07T01:11:09;3.70;;;2.67;;
5805;SDS011;2929;50.810;8.342;2023-05-07T01:13:37;3.97;;;2.40;;
5805;SDS011;2929;50.810;8.342;2023-05-07T01:16:06;4.43;;;2.90;;
5805;SDS011;2929;50.810;8.342;2023-05-07T01:18:34;5.57;;;2.90;;
5805;SDS011;2929;50.810;8.342;2023-05-07T01:21:03;3.00;;;2.40;;
5805;SDS011;2929;50.810;8.342;2023-05-07T01:23:32;5.17;;;2.97;;
5805;SDS011;2929;50.810;8.342;2023-05-07T01:26:01;2.27;;;2.03;;
5805;SDS011;2929;50.810;8.342;2023-05-07T01:28:30;4.13;;;2.70;;
5805;SDS011;2929;50.810;8.342;2023-05-07T01:31:00;4.77;;;2.83;;
5805;SDS011;2929;50.810;8.342;2023-05-07T01:33:29;4.77;;;2.70;;
5805;SDS011;2929;50.810;8.342;2023-05-07T01:35:59;2.70;;;2.30;;
5805;SDS011;2929;50.810;8.342;2023-05-07T01:38:29;2.80;;;2.27;;
5805;SDS011;2929;50.810;8.342;2023-05-07T01:40:58;2.80;;;2.57;;
5805;SDS011;2929;50.810;8.342;2023-05-07T01:43:25;2.40;;;2.20;;
5805;SDS011;2929;50.810;8.342;2023-05-07T01:45:52;4.90;;;2.83;;
5805;SDS011;2929;50.810;8.342;2023-05-07T01:48:20;6.70;;;2.40;;
5805;SDS011;2929;50.810;8.342;2023-05-07T01:50:47;5.07;;;2.67;;
5805;SDS011;2929;50.810;8.342;2023-05-07T01:53:15;2.73;;;2.43;;
5805;SDS011;2929;50.810;8.342;2023-05-07T01:55:42;7.73;;;2.63;;
5805;SDS011;2929;50.810;8.342;2023-05-07T01:58:12;8.40;;;3.10;;
5805;SDS011;2929;50.810;8.342;2023-05-07T02:00:39;3.03;;;2.60;;
5805;SDS011;2929;50.810;8.342;2023-05-07T02:03:07;2.73;;;2.10;;
5805;SDS011;2929;50.810;8.342;2023-05-07T02:05:44;4.70;;;2.60;;
5805;SDS011;2929;50.810;8.342;2023-05-07T02:08:18;5.57;;;2.47;;
5805;SDS011;2929;50.810;8.342;2023-05-07T02:10:45;2.57;;;2.37;;
5805;SDS011;2929;50.810;8.342;2023-05-07T02:13:14;3.00;;;2.57;;
5805;SDS011;2929;50.810;8.342;2023-05-07T02:15:41;5.10;;;2.70;;
5805;SDS011;2929;50.810;8.342;2023-05-07T02:18:09;3.50;;;2.30;;
5805;SDS011;2929;50.810;8.342;2023-05-07T02:20:36;3.33;;;2.63;;
5805;SDS011;2929;50.810;8.342;2023-05-07T02:23:03;3.90;;;3.13;;
5805;SDS011;2929;50.810;8.342;2023-05-07T02:25:30;8.60;;;3.13;;
5805;SDS011;2929;50.810;8.342;2023-05-07T02:27:58;4.00;;;2.77;;
5805;SDS011;2929;50.810;8.342;2023-05-07T02:30:42;4.30;;;2.70;;
5805;SDS011;2929;50.810;8.342;2023-05-07T02:33:09;3.70;;;2.70;;
5805;SDS011;2929;50.810;8.342;2023-05-07T02:35:38;3.67;;;2.83;;
5805;SDS011;2929;50.810;8.342;2023-05-07T02:38:05;3.70;;;3.40;;
5805;SDS011;2929;50.810;8.342;2023-05-07T02:40:33;3.77;;;2.73;;
5805;SDS011;2929;50.810;8.342;2023-05-07T02:43:04;6.80;;;3.30;;
5805;SDS011;2929;50.810;8.342;2023-05-07T02:45:31;3.60;;;3.00;;
5805;SDS011;2929;50.810;8.342;2023-05-07T02:48:02;7.10;;;3.60;;
5805;SDS011;2929;50.810;8.342;2023-05-07T02:50:29;7.17;;;3.77;;
5805;SDS011;2929;50.810;8.342;2023-05-07T02:52:57;6.20;;;3.40;;
5805;SDS011;2929;50.810;8.342;2023-05-07T02:55:25;4.90;;;3.00;;
5805;SDS011;2929;50.810;8.342;2023-05-07T02:57:52;3.00;;;2.60;;
5805;SDS011;2929;50.810;8.342;2023-05-07T03:00:20;5.13;;;3.17;;
5805;SDS011;2929;50.810;8.342;2023-05-07T03:03:02;3.77;;;2.90;;
5805;SDS011;2929;50.810;8.342;2023-05-07T03:05:29;4.10;;;2.70;;
5805;SDS011;2929;50.810;8.342;2023-05-07T03:07:56;3.30;;;3.00;;
5805;SDS011;2929;50.810;8.342;2023-05-07T03:10:23;5.20;;;2.70;;
5805;SDS011;2929;50.810;8.342;2023-05-07T03:12:51;3.33;;;2.87;;
5805;SDS011;2929;50.810;8.342;2023-05-07T03:15:18;6.40;;;3.30;;
5805;SDS011;2929;50.810;8.342;2023-05-07T03:17:45;3.57;;;3.17;;
5805;SDS011;2929;50.810;8.342;2023-05-07T03:20:13;5.70;;;3.70;;
5805;SDS011;2929;50.810;8.342;2023-05-07T03:22:41;3.43;;;3.13;;
5805;SDS011;2929;50.810;8.342;2023-05-07T03:25:08;5.33;;;3.50;;
5805;SDS011;2929;50.810;8.342;2023-05-07T03:27:35;5.57;;;4.50;;
5805;SDS011;2929;50.810;8.342;2023-05-07T03:30:03;5.07;;;4.10;;
5805;SDS011;2929;50.810;8.342;2023-05-07T03:32:31;6.90;;;3.67;;
5805;SDS011;2929;50.810;8.342;2023-05-07T03:34:58;5.83;;;3.83;;
5805;SDS011;2929;50.810;8.342;2023-05-07T03:37:27;4.90;;;3.67;;
5805;SDS011;2929;50.810;8.342;2023-05-07T03:39:54;5.83;;;3.63;;
5805;SDS011;2929;50.810;8.342;2023-05-07T03:42:21;6.67;;;4.20;;
5805;SDS011;2929;50.810;8.342;2023-05-07T03:44:50;5.30;;;3.93;;
5805;SDS011;2929;50.810;8.342;2023-05-07T03:47:18;5.63;;;3.70;;
5805;SDS011;2929;50.810;8.342;2023-05-07T03:49:46;8.20;;;3.70;;
5805;SDS011;2929;50.810;8.342;2023-05-07T03:52:14;12.20;;;4.80;;
5805;SDS011;2929;50.810;8.342;2023-05-07T03:54:42;7.70;;;3.70;;
5805;SDS011;2929;50.810;8.342;2023-05-07T03:57:13;5.53;;;3.93;;
5805;SDS011;2929;50.810;8.342;2023-05-07T03:59:40;8.20;;;4.03;;
5805;SDS011;2929;50.810;8.342;2023-05-07T04:02:08;10.70;;;3.63;;
5805;SDS011;2929;50.810;8.342;2023-05-07T04:04:35;5.83;;;4.30;;
5805;SDS011;2929;50.810;8.342;2023-05-07T04:07:02;5.87;;;4.27;;
5805;SDS011;2929;50.810;8.342;2023-05-07T04:09:32;5.00;;;4.13;;
5805;SDS011;2929;50.810;8.342;2023-05-07T04:12:00;5.50;;;3.63;;
5805;SDS011;2929;50.810;8.342;2023-05-07T04:14:28;9.90;;;4.00;;
5805;SDS011;2929;50.810;8.342;2023-05-07T04:16:57;4.80;;;4.30;;
5805;SDS011;2929;50.810;8.342;2023-05-07T04:19:25;6.60;;;4.13;;
5805;SDS011;2929;50.810;8.342;2023-05-07T04:21:53;8.83;;;6.03;;
5805;SDS011;2929;50.810;8.342;2023-05-07T04:24:21;8.20;;;5.40;;
5805;SDS011;2929;50.810;8.342;2023-05-07T04:26:48;8.23;;;5.97;;
5805;SDS011;2929;50.810;8.342;2023-05-07T04:29:17;9.87;;;6.00;;
5805;SDS011;2929;50.810;8.342;2023-05-07T04:31:44;11.50;;;7.33;;
5805;SDS011;2929;50.810;8.342;2023-05-07T04:34:12;9.30;;;6.67;;
5805;SDS011;2929;50.810;8.342;2023-05-07T04:36:39;8.53;;;6.50;;
5805;SDS011;2929;50.810;8.342;2023-05-07T04:39:10;11.63;;;8.03;;
5805;SDS011;2929;50.810;8.342;2023-05-07T04:41:40;10.60;;;7.10;;
5805;SDS011;2929;50.810;8.342;2023-05-07T04:44:08;12.43;;;7.80;;
5805;SDS011;2929;50.810;8.342;2023-05-07T04:46:37;10.03;;;7.83;;
5805;SDS011;2929;50.810;8.342;2023-05-07T04:49:04;11.03;;;7.40;;
5805;SDS011;2929;50.810;8.342;2023-05-07T04:51:31;10.00;;;7.57;;
5805;SDS011;2929;50.810;8.342;2023-05-07T04:53:59;8.20;;;6.77;;
5805;SDS011;2929;50.810;8.342;2023-05-07T04:56:28;11.43;;;7.70;;
5805;SDS011;2929;50.810;8.342;2023-05-07T04:58:56;13.23;;;6.77;;
5805;SDS011;2929;50.810;8.342;2023-05-07T05:01:23;8.90;;;6.63;;
5805;SDS011;2929;50.810;8.342;2023-05-07T05:03:52;11.53;;;8.70;;
5805;SDS011;2929;50.810;8.342;2023-05-07T05:06:19;11.97;;;8.40;;
5805;SDS011;2929;50.810;8.342;2023-05-07T05:08:46;14.70;;;7.87;;
5805;SDS011;2929;50.810;8.342;2023-05-07T05:11:13;12.73;;;8.43;;
5805;SDS011;2929;50.810;8.342;2023-05-07T05:13:40;14.63;;;7.97;;
5805;SDS011;2929;50.810;8.342;2023-05-07T05:16:12;10.67;;;8.13;;
5805;SDS011;2929;50.810;8.342;2023-05-07T05:18:39;9.90;;;8.07;;
5805;SDS011;2929;50.810;8.342;2023-05-07T05:21:09;9.77;;;7.60;;
5805;SDS011;2929;50.810;8.342;2023-05-07T05:23:37;11.17;;;8.27;;
5805;SDS011;2929;50.810;8.342;2023-05-07T05:26:04;11.40;;;8.20;;
5805;SDS011;2929;50.810;8.342;2023-05-07T05:28:32;13.80;;;8.60;;
5805;SDS011;2929;50.810;8.342;2023-05-07T05:31:01;10.97;;;8.07;;
5805;SDS011;2929;50.810;8.342;2023-05-07T05:33:32;14.90;;;9.03;;
5805;SDS011;2929;50.810;8.342;2023-05-07T05:36:02;10.57;;;8.83;;
5805;SDS011;2929;50.810;8.342;2023-05-07T05:38:31;12.17;;;8.23;;
5805;SDS011;2929;50.810;8.342;2023-05-07T05:40:59;17.60;;;9.97;;
5805;SDS011;2929;50.810;8.342;2023-05-07T05:43:27;12.20;;;9.47;;
5805;SDS011;2929;50.810;8.342;2023-05-07T05:45:55;10.93;;;9.33;;
5805;SDS011;2929;50.810;8.342;2023-05-07T05:48:22;12.27;;;10.07;;
5805;SDS011;2929;50.810;8.342;2023-05-07T05:50:49;15.43;;;10.97;;
5805;SDS011;2929;50.810;8.342;2023-05-07T05:53:17;16.60;;;11.07;;
5805;SDS011;2929;50.810;8.342;2023-05-07T05:55:46;15.87;;;11.33;;
5805;SDS011;2929;50.810;8.342;2023-05-07T05:58:13;11.17;;;9.57;;
5805;SDS011;2929;50.810;8.342;2023-05-07T06:00:47;12.57;;;10.13;;
5805;SDS011;2929;50.810;8.342;2023-05-07T06:03:17;14.83;;;10.70;;
5805;SDS011;2929;50.810;8.342;2023-05-07T06:05:44;21.77;;;11.40;;
5805;SDS011;2929;50.810;8.342;2023-05-07T06:08:12;13.27;;;10.60;;
5805;SDS011;2929;50.810;8.342;2023-05-07T06:10:39;13.53;;;10.70;;
5805;SDS011;2929;50.810;8.342;2023-05-07T06:13:09;16.60;;;10.83;;
5805;SDS011;2929;50.810;8.342;2023-05-07T06:15:36;11.53;;;10.10;;
5805;SDS011;2929;50.810;8.342;2023-05-07T06:18:08;16.97;;;10.10;;
5805;SDS011;2929;50.810;8.342;2023-05-07T06:20:35;14.87;;;11.17;;
5805;SDS011;2929;50.810;8.342;2023-05-07T06:23:05;15.87;;;10.90;;
5805;SDS011;2929;50.810;8.342;2023-05-07T06:25:33;15.13;;;10.70;;
5805;SDS011;2929;50.810;8.342;2023-05-07T06:28:00;14.67;;;10.00;;
5805;SDS011;2929;50.810;8.342;2023-05-07T06:30:29;13.47;;;11.03;;
5805;SDS011;2929;50.810;8.342;2023-05-07T06:32:56;14.10;;;10.90;;
5805;SDS011;2929;50.810;8.342;2023-05-07T06:35:24;14.37;;;11.37;;
5805;SDS011;2929;50.810;8.342;2023-05-07T06:37:52;11.40;;;9.83;;
5805;SDS011;2929;50.810;8.342;2023-05-07T06:40:23;15.47;;;10.30;;
5805;SDS011;2929;50.810;8.342;2023-05-07T06:42:50;12.23;;;10.40;;
5805;SDS011;2929;50.810;8.342;2023-05-07T06:45:35;14.30;;;10.97;;
5805;SDS011;2929;50.810;8.342;2023-05-07T06:48:04;12.50;;;9.77;;
5805;SDS011;2929;50.810;8.342;2023-05-07T06:50:37;15.10;;;11.40;;
5805;SDS011;2929;50.810;8.342;2023-05-07T06:53:04;16.30;;;10.83;;
5805;SDS011;2929;50.810;8.342;2023-05-07T06:55:31;14.00;;;10.67;;
5805;SDS011;2929;50.810;8.342;2023-05-07T06:57:59;18.03;;;10.00;;
5805;SDS011;2929;50.810;8.342;2023-05-07T07:00:27;14.27;;;10.20;;
5805;SDS011;2929;50.810;8.342;2023-05-07T07:02:56;15.00;;;11.20;;
5805;SDS011;2929;50.810;8.342;2023-05-07T07:05:26;10.87;;;9.43;;
5805;SDS011;2929;50.810;8.342;2023-05-07T07:07:54;15.87;;;9.73;;
5805;SDS011;2929;50.810;8.342;2023-05-07T07:10:22;12.77;;;10.10;;
5805;SDS011;2929;50.810;8.342;2023-05-07T07:12:51;13.50;;;10.10;;
5805;SDS011;2929;50.810;8.342;2023-05-07T07:15:19;15.40;;;12.27;;
5805;SDS011;2929;50.810;8.342;2023-05-07T07:17:47;16.43;;;11.13;;
5805;SDS011;2929;50.810;8.342;2023-05-07T07:20:16;20.33;;;11.17;;
5805;SDS011;2929;50.810;8.342;2023-05-07T07:22:44;12.80;;;10.50;;
5805;SDS011;2929;50.810;8.342;2023-05-07T07:25:12;12.70;;;10.27;;
5805;SDS011;2929;50.810;8.342;2023-05-07T07:27:39;17.70;;;11.00;;
5805;SDS011;2929;50.810;8.342;2023-05-07T07:30:07;19.13;;;11.20;;
5805;SDS011;2929;50.810;8.342;2023-05-07T07:32:36;11.90;;;10.33;;
5805;SDS011;2929;50.810;8.342;2023-05-07T07:35:04;15.50;;;10.63;;
5805;SDS011;2929;50.810;8.342;2023-05-07T07:37:33;14.53;;;11.00;;
5805;SDS011;2929;50.810;8.342;2023-05-07T07:40:00;15.90;;;11.27;;
5805;SDS011;2929;50.810;8.342;2023-05-07T07:42:28;14.97;;;10.00;;
5805;SDS011;2929;50.810;8.342;2023-05-07T07:44:56;15.80;;;10.97;;
5805;SDS011;2929;50.810;8.342;2023-05-07T07:47:26;15.40;;;11.37;;
5805;SDS011;2929;50.810;8.342;2023-05-07T07:49:53;21.10;;;10.77;;
5805;SDS011;2929;50.810;8.342;2023-05-07T07:52:20;16.30;;;11.80;;
5805;SDS011;2929;50.810;8.342;2023-05-07T07:54:49;15.10;;;12.10;;
5805;SDS011;2929;50.810;8.342;2023-05-07T07:57:16;15.70;;;11.30;;
5805;SDS011;2929;50.810;8.342;2023-05-07T07:59:43;13.77;;;11.47;;
5805;SDS011;2929;50.810;8.342;2023-05-07T08:02:12;13.33;;;10.90;;
5805;SDS011;2929;50.810;8.342;2023-05-07T08:04:39;20.10;;;11.40;;
5805;SDS011;2929;50.810;8.342;2023-05-07T08:07:08;13.53;;;10.80;;
5805;SDS011;2929;50.810;8.342;2023-05-07T08:09:39;13.70;;;10.73;;
5805;SDS011;2929;50.810;8.342;2023-05-07T08:12:08;15.90;;;11.70;;
5805;SDS011;2929;50.810;8.342;2023-05-07T08:14:37;14.40;;;11.13;;
5805;SDS011;2929;50.810;8.342;2023-05-07T08:17:06;16.67;;;10.27;;
5805;SDS011;2929;50.810;8.342;2023-05-07T08:19:36;15.03;;;11.83;;
5805;SDS011;2929;50.810;8.342;2023-05-07T08:22:05;18.70;;;11.47;;
5805;SDS011;2929;50.810;8.342;2023-05-07T08:24:33;19.37;;;13.37;;
5805;SDS011;2929;50.810;8.342;2023-05-07T08:27:00;14.87;;;10.90;;
5805;SDS011;2929;50.810;8.342;2023-05-07T08:29:28;12.03;;;10.63;;
5805;SDS011;2929;50.810;8.342;2023-05-07T08:31:55;15.33;;;11.97;;
5805;SDS011;2929;50.810;8.342;2023-05-07T08:34:22;16.03;;;11.90;;
5805;SDS011;2929;50.810;8.342;2023-05-07T08:36:51;15.57;;;11.40;;
5805;SDS011;2929;50.810;8.342;2023-05-07T08:39:21;16.10;;;11.33;;
5805;SDS011;2929;50.810;8.342;2023-05-07T08:41:51;14.27;;;11.20;;
5805;SDS011;2929;50.810;8.342;2023-05-07T08:44:23;31.43;;;11.90;;
5805;SDS011;2929;50.810;8.342;2023-05-07T08:46:56;15.03;;;10.63;;
5805;SDS011;2929;50.810;8.342;2023-05-07T08:49:25;12.23;;;10.70;;
5805;SDS011;2929;50.810;8.342;2023-05-07T08:51:53;14.60;;;9.80;;
5805;SDS011;2929;50.810;8.342;2023-05-07T08:54:21;13.50;;;11.10;;
5805;SDS011;2929;50.810;8.342;2023-05-07T08:56:48;14.03;;;10.90;;
5805;SDS011;2929;50.810;8.342;2023-05-07T08:59:16;17.97;;;12.73;;
5805;SDS011;2929;50.810;8.342;2023-05-07T09:01:45;14.67;;;10.40;;
5805;SDS011;2929;50.810;8.342;2023-05-07T09:04:13;16.07;;;10.80;;
5805;SDS011;2929;50.810;8.342;2023-05-07T09:06:41;14.00;;;10.60;;
5805;SDS011;2929;50.810;8.342;2023-05-07T09:09:10;14.83;;;10.83;;
5805;SDS011;2929;50.810;8.342;2023-05-07T09:11:41;15.47;;;11.20;;
5805;SDS011;2929;50.810;8.342;2023-05-07T09:14:08;16.57;;;10.37;;
5805;SDS011;2929;50.810;8.342;2023-05-07T09:16:39;11.90;;;10.53;;
5805;SDS011;2929;50.810;8.342;2023-05-07T09:19:15;15.80;;;11.10;;
5805;SDS011;2929;50.810;8.342;2023-05-07T09:21:44;11.80;;;9.50;;
5805;SDS011;2929;50.810;8.342;2023-05-07T09:24:14;16.90;;;12.17;;
5805;SDS011;2929;50.810;8.342;2023-05-07T09:26:43;17.10;;;11.17;;
5805;SDS011;2929;50.810;8.342;2023-05-07T09:29:11;16.43;;;11.13;;
5805;SDS011;2929;50.810;8.342;2023-05-07T09:31:38;16.83;;;11.20;;
5805;SDS011;2929;50.810;8.342;2023-05-07T09:34:08;11.90;;;9.90;;
5805;SDS011;2929;50.810;8.342;2023-05-07T09:36:39;13.50;;;9.77;;
5805;SDS011;2929;50.810;8.342;2023-05-07T09:39:07;18.30;;;10.93;;
5805;SDS011;2929;50.810;8.342;2023-05-07T09:41:37;15.20;;;11.07;;
5805;SDS011;2929;50.810;8.342;2023-05-07T09:44:14;16.30;;;10.80;;
5805;SDS011;2929;50.810;8.342;2023-05-07T09:46:46;13.10;;;10.23;;
5805;SDS011;2929;50.810;8.342;2023-05-07T09:49:23;23.60;;;11.30;;
5805;SDS011;2929;50.810;8.342;2023-05-07T09:51:59;12.73;;;10.07;;
5805;SDS011;2929;50.810;8.342;2023-05-07T09:54:30;13.97;;;11.67;;
5805;SDS011;2929;50.810;8.342;2023-05-07T09:57:00;13.03;;;11.20;;
5805;SDS011;2929;50.810;8.342;2023-05-07T09:59:29;14.73;;;11.00;;
5805;SDS011;2929;50.810;8.342;2023-05-07T10:02:01;13.73;;;11.33;;
5805;SDS011;2929;50.810;8.342;2023-05-07T10:04:30;13.20;;;10.50;;
5805;SDS011;2929;50.810;8.342;2023-05-07T10:06:59;17.77;;;11.23;;
5805;SDS011;2929;50.810;8.342;2023-05-07T10:09:30;15.77;;;11.73;;
5805;SDS011;2929;50.810;8.342;2023-05-07T10:11:58;16.43;;;10.17;;
5805;SDS011;2929;50.810;8.342;2023-05-07T10:14:25;12.50;;;10.00;;
5805;SDS011;2929;50.810;8.342;2023-05-07T10:16:55;12.00;;;9.93;;
5805;SDS011;2929;50.810;8.342;2023-05-07T10:19:23;13.90;;;10.53;;
5805;SDS011;2929;50.810;8.342;2023-05-07T10:21:54;12.90;;;10.10;;
5805;SDS011;2929;50.810;8.342;2023-05-07T10:24:26;12.87;;;10.43;;
5805;SDS011;2929;50.810;8.342;2023-05-07T10:26:57;14.63;;;9.80;;
5805;SDS011;2929;50.810;8.342;2023-05-07T10:29:30;13.07;;;9.17;;
5805;SDS011;2929;50.810;8.342;2023-05-07T10:32:08;13.93;;;10.90;;
5805;SDS011;2929;50.810;8.342;2023-05-07T10:34:44;13.80;;;10.67;;
5805;SDS011;2929;50.810;8.342;2023-05-07T10:37:15;11.30;;;9.00;;
5805;SDS011;2929;50.810;8.342;2023-05-07T10:39:45;14.60;;;8.87;;
5805;SDS011;2929;50.810;8.342;2023-05-07T10:42:13;22.10;;;9.50;;
5805;SDS011;2929;50.810;8.342;2023-05-07T10:44:47;9.80;;;8.23;;
5805;SDS011;2929;50.810;8.342;2023-05-07T10:50:25;11.93;;;9.37;;
5805;SDS011;2929;50.810;8.342;2023-05-07T10:59:30;10.73;;;8.57;;
5805;SDS011;2929;50.810;8.342;2023-05-07T11:02:18;11.33;;;9.40;;
5805;SDS011;2929;50.810;8.342;2023-05-07T11:08:10;11.77;;;8.23;;
5805;SDS011;2929;50.810;8.342;2023-05-07T11:11:00;13.80;;;8.13;;
5805;SDS011;2929;50.810;8.342;2023-05-07T11:13:44;11.70;;;8.47;;
5805;SDS011;2929;50.810;8.342;2023-05-07T11:16:21;10.80;;;7.97;;
5805;SDS011;2929;50.810;8.342;2023-05-07T11:18:55;11.57;;;8.33;;
5805;SDS011;2929;50.810;8.342;2023-05-07T11:21:33;7.30;;;6.47;;
5805;SDS011;2929;50.810;8.342;2023-05-07T11:24:30;12.73;;;8.30;;
5805;SDS011;2929;50.810;8.342;2023-05-07T11:27:06;9.03;;;7.60;;
5805;SDS011;2929;50.810;8.342;2023-05-07T11:29:35;10.23;;;7.17;;
5805;SDS011;2929;50.810;8.342;2023-05-07T11:32:06;12.40;;;7.10;;
5805;SDS011;2929;50.810;8.342;2023-05-07T11:34:40;8.57;;;6.70;;
5805;SDS011;2929;50.810;8.342;2023-05-07T11:37:08;7.33;;;6.13;;
5805;SDS011;2929;50.810;8.342;2023-05-07T11:39:48;9.27;;;5.90;;
5805;SDS011;2929;50.810;8.342;2023-05-07T11:42:28;7.17;;;6.10;;
5805;SDS011;2929;50.810;8.342;2023-05-07T11:44:57;8.60;;;5.90;;
5805;SDS011;2929;50.810;8.342;2023-05-07T11:47:24;7.00;;;5.27;;
5805;SDS011;2929;50.810;8.342;2023-05-07T11:49:52;8.77;;;6.10;;
5805;SDS011;2929;50.810;8.342;2023-05-07T11:52:21;6.83;;;5.27;;
5805;SDS011;2929;50.810;8.342;2023-05-07T11:54:50;6.97;;;4.70;;
5805;SDS011;2929;50.810;8.342;2023-05-07T11:57:18;9.43;;;6.00;;
5805;SDS011;2929;50.810;8.342;2023-05-07T11:59:46;9.40;;;6.77;;
5805;SDS011;2929;50.810;8.342;2023-05-07T12:02:15;9.07;;;6.03;;
5805;SDS011;2929;50.810;8.342;2023-05-07T12:04:43;10.30;;;6.70;;
5805;SDS011;2929;50.810;8.342;2023-05-07T12:07:13;14.33;;;6.17;;
5805;SDS011;2929;50.810;8.342;2023-05-07T12:09:45;7.67;;;6.07;;
5805;SDS011;2929;50.810;8.342;2023-05-07T12:12:12;5.90;;;5.30;;
5805;SDS011;2929;50.810;8.342;2023-05-07T12:14:41;10.73;;;4.70;;
5805;SDS011;2929;50.810;8.342;2023-05-07T12:17:10;4.70;;;4.20;;
5805;SDS011;2929;50.810;8.342;2023-05-07T12:19:40;6.73;;;4.37;;
5805;SDS011;2929;50.810;8.342;2023-05-07T12:22:09;4.93;;;4.20;;
5805;SDS011;2929;50.810;8.342;2023-05-07T12:24:46;4.90;;;4.10;;
5805;SDS011;2929;50.810;8.342;2023-05-07T12:27:14;6.60;;;5.10;;
5805;SDS011;2929;50.810;8.342;2023-05-07T12:29:43;4.43;;;3.90;;
5805;SDS011;2929;50.810;8.342;2023-05-07T12:32:12;4.80;;;4.30;;
5805;SDS011;2929;50.810;8.342;2023-05-07T12:34:42;4.87;;;4.10;;
5805;SDS011;2929;50.810;8.342;2023-05-07T12:37:10;12.70;;;3.80;;
5805;SDS011;2929;50.810;8.342;2023-05-07T12:39:38;5.07;;;4.60;;
5805;SDS011;2929;50.810;8.342;2023-05-07T12:42:10;5.90;;;4.97;;
5805;SDS011;2929;50.810;8.342;2023-05-07T12:44:43;5.03;;;4.53;;
5805;SDS011;2929;50.810;8.342;2023-05-07T12:47:12;5.03;;;4.53;;
5805;SDS011;2929;50.810;8.342;2023-05-07T12:49:42;4.53;;;3.90;;
5805;SDS011;2929;50.810;8.342;2023-05-07T12:52:11;8.00;;;5.03;;
5805;SDS011;2929;50.810;8.342;2023-05-07T12:54:39;6.20;;;4.77;;
5805;SDS011;2929;50.810;8.342;2023-05-07T12:57:06;6.70;;;5.33;;
5805;SDS011;2929;50.810;8.342;2023-05-07T12:59:35;4.43;;;4.03;;
5805;SDS011;2929;50.810;8.342;2023-05-07T13:02:04;4.17;;;3.77;;
5805;SDS011;2929;50.810;8.342;2023-05-07T13:04:31;7.60;;;5.07;;
5805;SDS011;2929;50.810;8.342;2023-05-07T13:07:02;5.50;;;4.33;;
5805;SDS011;2929;50.810;8.342;2023-05-07T13:09:30;5.70;;;4.20;;
5805;SDS011;2929;50.810;8.342;2023-05-07T13:11:57;6.83;;;4.40;;
5805;SDS011;2929;50.810;8.342;2023-05-07T13:14:26;8.47;;;4.90;;
5805;SDS011;2929;50.810;8.342;2023-05-07T13:16:54;6.03;;;3.70;;
5805;SDS011;2929;50.810;8.342;2023-05-07T13:19:21;3.57;;;3.27;;
5805;SDS011;2929;50.810;8.342;2023-05-07T13:21:48;5.53;;;4.30;;
5805;SDS011;2929;50.810;8.342;2023-05-07T13:24:17;4.53;;;3.77;;
5805;SDS011;2929;50.810;8.342;2023-05-07T13:26:44;6.33;;;5.30;;
5805;SDS011;2929;50.810;8.342;2023-05-07T13:29:11;9.00;;;4.50;;
5805;SDS011;2929;50.810;8.342;2023-05-07T13:31:38;11.80;;;5.17;;
5805;SDS011;2929;50.810;8.342;2023-05-07T13:34:08;8.50;;;5.10;;
5805;SDS011;2929;50.810;8.342;2023-05-07T13:36:35;6.67;;;4.10;;
5805;SDS011;2929;50.810;8.342;2023-05-07T13:39:05;4.60;;;3.80;;
5805;SDS011;2929;50.810;8.342;2023-05-07T13:41:33;6.40;;;4.10;;
5805;SDS011;2929;50.810;8.342;2023-05-07T13:44:00;4.27;;;3.87;;
5805;SDS011;2929;50.810;8.342;2023-05-07T13:46:27;7.13;;;3.93;;
5805;SDS011;2929;50.810;8.342;2023-05-07T13:48:55;4.13;;;3.50;;
5805;SDS011;2929;50.810;8.342;2023-05-07T13:51:22;3.40;;;3.10;;
5805;SDS011;2929;50.810;8.342;2023-05-07T13:53:49;5.63;;;3.97;;
5805;SDS011;2929;50.810;8.342;2023-05-07T13:56:17;8.60;;;4.00;;
5805;SDS011;2929;50.810;8.342;2023-05-07T13:58:46;7.53;;;3.73;;
5805;SDS011;2929;50.810;8.342;2023-05-07T14:01:13;6.80;;;4.10;;
5805;SDS011;2929;50.810;8.342;2023-05-07T14:03:40;5.37;;;3.90;;
5805;SDS011;2929;50.810;8.342;2023-05-07T14:06:08;4.57;;;3.03;;
5805;SDS011;2929;50.810;8.342;2023-05-07T14:08:35;5.53;;;3.27;;
5805;SDS011;2929;50.810;8.342;2023-05-07T14:11:02;4.23;;;3.83;;
5805;SDS011;2929;50.810;8.342;2023-05-07T14:13:29;5.80;;;4.30;;
5805;SDS011;2929;50.810;8.342;2023-05-07T14:15:59;5.10;;;3.50;;
5805;SDS011;2929;50.810;8.342;2023-05-07T14:18:27;4.50;;;3.57;;
5805;SDS011;2929;50.810;8.342;2023-05-07T14:20:56;4.10;;;3.73;;
5805;SDS011;2929;50.810;8.342;2023-05-07T14:23:23;4.43;;;3.77;;
5805;SDS011;2929;50.810;8.342;2023-05-07T14:25:51;10.07;;;3.77;;
5805;SDS011;2929;50.810;8.342;2023-05-07T14:28:19;5.40;;;3.67;;
5805;SDS011;2929;50.810;8.342;2023-05-07T14:30:46;4.80;;;3.40;;
5805;SDS011;2929;50.810;8.342;2023-05-07T14:33:15;5.00;;;4.07;;
5805;SDS011;2929;50.810;8.342;2023-05-07T14:35:42;4.07;;;3.67;;
5805;SDS011;2929;50.810;8.342;2023-05-07T14:38:13;4.70;;;3.57;;
5805;SDS011;2929;50.810;8.342;2023-05-07T14:40:40;6.80;;;4.03;;
5805;SDS011;2929;50.810;8.342;2023-05-07T14:43:07;7.60;;;4.27;;
5805;SDS011;2929;50.810;8.342;2023-05-07T14:45:34;5.77;;;4.43;;
5805;SDS011;2929;50.810;8.342;2023-05-07T14:48:01;4.30;;;3.90;;
5805;SDS011;2929;50.810;8.342;2023-05-07T14:50:30;5.30;;;4.60;;
5805;SDS011;2929;50.810;8.342;2023-05-07T14:52:57;4.73;;;4.30;;
5805;SDS011;2929;50.810;8.342;2023-05-07T14:55:25;5.10;;;4.60;;
5805;SDS011;2929;50.810;8.342;2023-05-07T14:57:52;6.27;;;4.30;;
5805;SDS011;2929;50.810;8.342;2023-05-07T15:00:19;6.40;;;4.67;;
5805;SDS011;2929;50.810;8.342;2023-05-07T15:02:47;6.17;;;4.13;;
5805;SDS011;2929;50.810;8.342;2023-05-07T15:05:14;4.77;;;4.27;;
5805;SDS011;2929;50.810;8.342;2023-05-07T15:07:44;5.07;;;3.67;;
5805;SDS011;2929;50.810;8.342;2023-05-07T15:10:11;5.13;;;4.23;;
5805;SDS011;2929;50.810;8.342;2023-05-07T15:12:41;5.97;;;4.13;;
5805;SDS011;2929;50.810;8.342;2023-05-07T15:15:08;6.57;;;4.93;;
5805;SDS011;2929;50.810;8.342;2023-05-07T15:17:36;6.90;;;4.03;;
5805;SDS011;2929;50.810;8.342;2023-05-07T15:20:04;6.30;;;4.40;;
5805;SDS011;2929;50.810;8.342;2023-05-07T15:22:32;4.40;;;4.00;;
5805;SDS011;2929;50.810;8.342;2023-05-07T15:25:00;4.80;;;4.40;;
5805;SDS011;2929;50.810;8.342;2023-05-07T15:27:28;5.33;;;4.40;;
5805;SDS011;2929;50.810;8.342;2023-05-07T15:29:55;5.93;;;3.93;;